sensor_id;sensor_type;location;lat;lon;timestamp;P1;durP1;ratioP1;P2;durP2;ratioP2
19149;SDS011;9707;49.158;8.632;2023-04-23T00:01:31;3.88;;;2.35;;
19149;SDS011;9707;49.158;8.632;2023-04-23T00:03:59;3.10;;;2.40;;
19149;SDS011;9707;49.158;8.632;2023-04-23T00:06:25;4.60;;;2.55;;
19149;SDS011;9707;49.158;8.632;2023-04-23T00:08:52;4.53;;;2.47;;
19149;SDS011;9707;49.158;8.632;2023-04-23T00:11:18;5.10;;;2.47;;
19149;SDS011;9707;49.158;8.632;2023-04-23T00:13:43;2.83;;;2.13;;
19149;SDS011;9707;49.158;8.632;2023-04-23T00:16:11;4.30;;;2.13;;
19149;SDS011;9707;49.158;8.632;2023-04-23T00:18:36;3.17;;;2.05;;
19149;SDS011;9707;49.158;8.632;2023-04-23T00:21:02;3.58;;;2.40;;
19149;SDS011;9707;49.158;8.632;2023-04-23T00:23:27;5.28;;;2.47;;
19149;SDS011;9707;49.158;8.632;2023-04-23T00:25:52;8.38;;;2.92;;
19149;SDS011;9707;49.158;8.632;2023-04-23T00:28:18;5.70;;;2.78;;
19149;SDS011;9707;49.158;8.632;2023-04-23T00:30:43;4.22;;;2.88;;
19149;SDS011;9707;49.158;8.632;2023-04-23T00:33:08;3.67;;;2.95;;
19149;SDS011;9707;49.158;8.632;2023-04-23T00:35:34;4.95;;;2.97;;
19149;SDS011;9707;49.158;8.632;2023-04-23T00:37:59;5.20;;;3.20;;
19149;SDS011;9707;49.158;8.632;2023-04-23T00:40:24;3.85;;;3.33;;
19149;SDS011;9707;49.158;8.632;2023-04-23T00:42:50;5.53;;;3.38;;
19149;SDS011;9707;49.158;8.632;2023-04-23T00:45:17;4.63;;;3.25;;
19149;SDS011;9707;49.158;8.632;2023-04-23T00:47:43;6.68;;;3.85;;
19149;SDS011;9707;49.158;8.632;2023-04-23T00:50:10;5.70;;;3.38;;
19149;SDS011;9707;49.158;8.632;2023-04-23T00:52:35;3.38;;;3.03;;
19149;SDS011;9707;49.158;8.632;2023-04-23T00:55:03;6.38;;;4.00;;
19149;SDS011;9707;49.158;8.632;2023-04-23T00:57:28;5.18;;;3.67;;
19149;SDS011;9707;49.158;8.632;2023-04-23T00:59:54;5.97;;;4.18;;
19149;SDS011;9707;49.158;8.632;2023-04-23T01:02:22;7.93;;;4.22;;
19149;SDS011;9707;49.158;8.632;2023-04-23T01:04:48;6.05;;;4.15;;
19149;SDS011;9707;49.158;8.632;2023-04-23T01:07:18;4.25;;;3.00;;
19149;SDS011;9707;49.158;8.632;2023-04-23T01:09:44;5.97;;;4.00;;
19149;SDS011;9707;49.158;8.632;2023-04-23T01:12:10;4.95;;;4.45;;
19149;SDS011;9707;49.158;8.632;2023-04-23T01:14:36;4.63;;;3.90;;
19149;SDS011;9707;49.158;8.632;2023-04-23T01:17:02;6.82;;;4.07;;
19149;SDS011;9707;49.158;8.632;2023-04-23T01:19:27;5.97;;;4.45;;
19149;SDS011;9707;49.158;8.632;2023-04-23T01:21:52;7.40;;;4.28;;
19149;SDS011;9707;49.158;8.632;2023-04-23T01:24:18;5.43;;;3.75;;
19149;SDS011;9707;49.158;8.632;2023-04-23T01:26:43;5.97;;;4.00;;
19149;SDS011;9707;49.158;8.632;2023-04-23T01:29:09;7.55;;;4.10;;
19149;SDS011;9707;49.158;8.632;2023-04-23T01:31:35;6.32;;;4.40;;
19149;SDS011;9707;49.158;8.632;2023-04-23T01:34:01;6.93;;;4.60;;
19149;SDS011;9707;49.158;8.632;2023-04-23T01:36:26;4.78;;;4.05;;
19149;SDS011;9707;49.158;8.632;2023-04-23T01:38:52;7.05;;;4.63;;
19149;SDS011;9707;49.158;8.632;2023-04-23T01:41:17;7.53;;;4.10;;
19149;SDS011;9707;49.158;8.632;2023-04-23T01:43:44;4.95;;;3.60;;
19149;SDS011;9707;49.158;8.632;2023-04-23T01:46:09;6.82;;;5.00;;
19149;SDS011;9707;49.158;8.632;2023-04-23T01:48:35;6.03;;;4.20;;
19149;SDS011;9707;49.158;8.632;2023-04-23T01:51:00;6.63;;;4.03;;
19149;SDS011;9707;49.158;8.632;2023-04-23T01:53:26;5.90;;;4.25;;
19149;SDS011;9707;49.158;8.632;2023-04-23T01:55:51;7.78;;;5.25;;
19149;SDS011;9707;49.158;8.632;2023-04-23T01:58:19;6.32;;;5.35;;
19149;SDS011;9707;49.158;8.632;2023-04-23T02:00:44;4.68;;;3.90;;
19149;SDS011;9707;49.158;8.632;2023-04-23T02:03:09;7.97;;;4.60;;
19149;SDS011;9707;49.158;8.632;2023-04-23T02:05:35;5.20;;;4.47;;
19149;SDS011;9707;49.158;8.632;2023-04-23T02:08:01;6.43;;;5.13;;
19149;SDS011;9707;49.158;8.632;2023-04-23T02:10:26;8.32;;;5.35;;
19149;SDS011;9707;49.158;8.632;2023-04-23T02:12:52;6.50;;;5.25;;
19149;SDS011;9707;49.158;8.632;2023-04-23T02:15:17;5.40;;;4.13;;
19149;SDS011;9707;49.158;8.632;2023-04-23T02:17:43;6.93;;;4.60;;
19149;SDS011;9707;49.158;8.632;2023-04-23T02:20:09;7.88;;;4.75;;
19149;SDS011;9707;49.158;8.632;2023-04-23T02:22:36;6.18;;;4.53;;
19149;SDS011;9707;49.158;8.632;2023-04-23T02:25:03;6.45;;;4.22;;
19149;SDS011;9707;49.158;8.632;2023-04-23T02:27:29;4.75;;;3.90;;
19149;SDS011;9707;49.158;8.632;2023-04-23T02:29:54;5.65;;;3.55;;
19149;SDS011;9707;49.158;8.632;2023-04-23T02:32:20;4.40;;;3.95;;
19149;SDS011;9707;49.158;8.632;2023-04-23T02:34:46;5.88;;;3.65;;
19149;SDS011;9707;49.158;8.632;2023-04-23T02:37:11;5.05;;;3.67;;
19149;SDS011;9707;49.158;8.632;2023-04-23T02:39:36;3.33;;;3.03;;
19149;SDS011;9707;49.158;8.632;2023-04-23T02:42:03;3.35;;;3.05;;
19149;SDS011;9707;49.158;8.632;2023-04-23T02:44:28;4.03;;;2.95;;
19149;SDS011;9707;49.158;8.632;2023-04-23T02:46:53;5.85;;;3.65;;
19149;SDS011;9707;49.158;8.632;2023-04-23T02:49:21;2.72;;;2.53;;
19149;SDS011;9707;49.158;8.632;2023-04-23T02:51:47;3.70;;;2.92;;
19149;SDS011;9707;49.158;8.632;2023-04-23T02:54:12;5.10;;;3.08;;
19149;SDS011;9707;49.158;8.632;2023-04-23T02:56:38;6.00;;;3.03;;
19149;SDS011;9707;49.158;8.632;2023-04-23T02:59:03;5.65;;;2.45;;
19149;SDS011;9707;49.158;8.632;2023-04-23T03:01:30;5.57;;;3.47;;
19149;SDS011;9707;49.158;8.632;2023-04-23T03:03:55;5.05;;;3.25;;
19149;SDS011;9707;49.158;8.632;2023-04-23T03:06:21;7.40;;;3.08;;
19149;SDS011;9707;49.158;8.632;2023-04-23T03:08:46;4.32;;;2.92;;
19149;SDS011;9707;49.158;8.632;2023-04-23T03:11:12;5.70;;;2.95;;
19149;SDS011;9707;49.158;8.632;2023-04-23T03:13:37;5.65;;;2.95;;
19149;SDS011;9707;49.158;8.632;2023-04-23T03:16:02;3.72;;;3.00;;
19149;SDS011;9707;49.158;8.632;2023-04-23T03:18:28;5.30;;;3.00;;
19149;SDS011;9707;49.158;8.632;2023-04-23T03:20:53;5.95;;;2.60;;
19149;SDS011;9707;49.158;8.632;2023-04-23T03:23:18;4.13;;;2.60;;
19149;SDS011;9707;49.158;8.632;2023-04-23T03:25:43;4.75;;;3.00;;
19149;SDS011;9707;49.158;8.632;2023-04-23T03:28:09;4.75;;;2.78;;
19149;SDS011;9707;49.158;8.632;2023-04-23T03:30:34;2.42;;;1.90;;
19149;SDS011;9707;49.158;8.632;2023-04-23T03:33:00;2.60;;;1.50;;
19149;SDS011;9707;49.158;8.632;2023-04-23T03:35:26;1.23;;;1.13;;
19149;SDS011;9707;49.158;8.632;2023-04-23T03:37:51;1.58;;;1.40;;
19149;SDS011;9707;49.158;8.632;2023-04-23T03:40:17;2.05;;;1.85;;
19149;SDS011;9707;49.158;8.632;2023-04-23T03:42:43;3.33;;;1.80;;
19149;SDS011;9707;49.158;8.632;2023-04-23T03:45:09;2.28;;;1.30;;
19149;SDS011;9707;49.158;8.632;2023-04-23T03:47:35;4.07;;;1.50;;
19149;SDS011;9707;49.158;8.632;2023-04-23T03:50:00;1.50;;;1.00;;
19149;SDS011;9707;49.158;8.632;2023-04-23T03:52:26;2.63;;;1.73;;
19149;SDS011;9707;49.158;8.632;2023-04-23T03:54:51;2.03;;;1.83;;
19149;SDS011;9707;49.158;8.632;2023-04-23T03:57:16;2.10;;;1.88;;
19149;SDS011;9707;49.158;8.632;2023-04-23T03:59:42;1.92;;;1.70;;
19149;SDS011;9707;49.158;8.632;2023-04-23T04:02:07;4.25;;;1.77;;
19149;SDS011;9707;49.158;8.632;2023-04-23T04:04:32;2.45;;;1.60;;
19149;SDS011;9707;49.158;8.632;2023-04-23T04:06:58;2.50;;;1.70;;
19149;SDS011;9707;49.158;8.632;2023-04-23T04:09:27;2.28;;;1.40;;
19149;SDS011;9707;49.158;8.632;2023-04-23T04:11:53;2.70;;;1.95;;
19149;SDS011;9707;49.158;8.632;2023-04-23T04:14:18;3.17;;;2.10;;
19149;SDS011;9707;49.158;8.632;2023-04-23T04:16:44;4.10;;;2.83;;
19149;SDS011;9707;49.158;8.632;2023-04-23T04:19:10;5.38;;;2.50;;
19149;SDS011;9707;49.158;8.632;2023-04-23T04:21:35;4.00;;;2.70;;
19149;SDS011;9707;49.158;8.632;2023-04-23T04:24:01;2.88;;;2.38;;
19149;SDS011;9707;49.158;8.632;2023-04-23T04:26:27;3.47;;;2.50;;
19149;SDS011;9707;49.158;8.632;2023-04-23T04:28:52;3.75;;;2.45;;
19149;SDS011;9707;49.158;8.632;2023-04-23T04:31:18;4.10;;;3.08;;
19149;SDS011;9707;49.158;8.632;2023-04-23T04:33:45;4.78;;;2.35;;
19149;SDS011;9707;49.158;8.632;2023-04-23T04:36:11;2.95;;;2.20;;
19149;SDS011;9707;49.158;8.632;2023-04-23T04:38:37;3.42;;;2.40;;
19149;SDS011;9707;49.158;8.632;2023-04-23T04:41:03;3.85;;;2.05;;
19149;SDS011;9707;49.158;8.632;2023-04-23T04:43:28;2.58;;;1.90;;
19149;SDS011;9707;49.158;8.632;2023-04-23T04:45:54;3.38;;;2.20;;
19149;SDS011;9707;49.158;8.632;2023-04-23T04:48:19;3.50;;;2.15;;
19149;SDS011;9707;49.158;8.632;2023-04-23T04:50:44;2.28;;;1.92;;
19149;SDS011;9707;49.158;8.632;2023-04-23T04:53:10;2.67;;;1.77;;
19149;SDS011;9707;49.158;8.632;2023-04-23T04:55:36;2.25;;;1.73;;
19149;SDS011;9707;49.158;8.632;2023-04-23T04:58:01;2.50;;;1.70;;
19149;SDS011;9707;49.158;8.632;2023-04-23T05:00:27;2.25;;;1.70;;
19149;SDS011;9707;49.158;8.632;2023-04-23T05:02:54;2.55;;;1.63;;
19149;SDS011;9707;49.158;8.632;2023-04-23T05:05:21;2.58;;;1.67;;
19149;SDS011;9707;49.158;8.632;2023-04-23T05:07:47;2.63;;;1.60;;
19149;SDS011;9707;49.158;8.632;2023-04-23T05:10:13;3.20;;;1.75;;
19149;SDS011;9707;49.158;8.632;2023-04-23T05:12:39;2.13;;;1.42;;
19149;SDS011;9707;49.158;8.632;2023-04-23T05:15:06;2.20;;;1.52;;
19149;SDS011;9707;49.158;8.632;2023-04-23T05:17:37;2.20;;;1.40;;
19149;SDS011;9707;49.158;8.632;2023-04-23T05:20:02;1.55;;;1.20;;
19149;SDS011;9707;49.158;8.632;2023-04-23T05:22:28;1.88;;;1.30;;
19149;SDS011;9707;49.158;8.632;2023-04-23T05:24:54;2.30;;;1.60;;
19149;SDS011;9707;49.158;8.632;2023-04-23T05:27:19;1.65;;;1.50;;
19149;SDS011;9707;49.158;8.632;2023-04-23T05:29:45;3.13;;;1.52;;
19149;SDS011;9707;49.158;8.632;2023-04-23T05:32:10;1.90;;;1.52;;
19149;SDS011;9707;49.158;8.632;2023-04-23T05:34:35;3.35;;;1.58;;
19149;SDS011;9707;49.158;8.632;2023-04-23T05:37:01;2.58;;;1.75;;
19149;SDS011;9707;49.158;8.632;2023-04-23T05:39:27;3.95;;;1.52;;
19149;SDS011;9707;49.158;8.632;2023-04-23T05:41:52;2.00;;;1.80;;
19149;SDS011;9707;49.158;8.632;2023-04-23T05:44:17;2.67;;;2.00;;
19149;SDS011;9707;49.158;8.632;2023-04-23T05:46:43;3.40;;;1.80;;
19149;SDS011;9707;49.158;8.632;2023-04-23T05:49:08;3.08;;;1.92;;
19149;SDS011;9707;49.158;8.632;2023-04-23T05:51:33;2.80;;;1.85;;
19149;SDS011;9707;49.158;8.632;2023-04-23T05:53:58;3.10;;;1.90;;
19149;SDS011;9707;49.158;8.632;2023-04-23T05:56:24;3.20;;;1.98;;
19149;SDS011;9707;49.158;8.632;2023-04-23T05:58:49;3.15;;;1.70;;
19149;SDS011;9707;49.158;8.632;2023-04-23T06:01:15;2.38;;;1.88;;
19149;SDS011;9707;49.158;8.632;2023-04-23T06:03:40;1.92;;;1.73;;
19149;SDS011;9707;49.158;8.632;2023-04-23T06:06:09;3.20;;;1.73;;
19149;SDS011;9707;49.158;8.632;2023-04-23T06:08:35;3.72;;;2.10;;
19149;SDS011;9707;49.158;8.632;2023-04-23T06:11:00;3.20;;;2.25;;
19149;SDS011;9707;49.158;8.632;2023-04-23T06:13:25;2.97;;;2.00;;
19149;SDS011;9707;49.158;8.632;2023-04-23T06:15:52;2.35;;;2.10;;
19149;SDS011;9707;49.158;8.632;2023-04-23T06:18:17;3.10;;;1.65;;
19149;SDS011;9707;49.158;8.632;2023-04-23T06:20:42;2.25;;;1.70;;
19149;SDS011;9707;49.158;8.632;2023-04-23T06:23:08;3.08;;;1.90;;
19149;SDS011;9707;49.158;8.632;2023-04-23T06:25:34;3.03;;;2.22;;
19149;SDS011;9707;49.158;8.632;2023-04-23T06:27:59;2.10;;;1.90;;
19149;SDS011;9707;49.158;8.632;2023-04-23T06:30:24;3.60;;;2.10;;
19149;SDS011;9707;49.158;8.632;2023-04-23T06:32:49;2.53;;;1.90;;
19149;SDS011;9707;49.158;8.632;2023-04-23T06:35:15;4.15;;;2.20;;
19149;SDS011;9707;49.158;8.632;2023-04-23T06:37:40;3.75;;;1.83;;
19149;SDS011;9707;49.158;8.632;2023-04-23T06:40:05;2.10;;;1.75;;
19149;SDS011;9707;49.158;8.632;2023-04-23T06:42:31;2.30;;;1.45;;
19149;SDS011;9707;49.158;8.632;2023-04-23T06:44:56;3.00;;;2.10;;
19149;SDS011;9707;49.158;8.632;2023-04-23T06:47:23;2.85;;;1.73;;
19149;SDS011;9707;49.158;8.632;2023-04-23T06:49:48;2.25;;;1.77;;
19149;SDS011;9707;49.158;8.632;2023-04-23T06:52:14;3.40;;;1.92;;
19149;SDS011;9707;49.158;8.632;2023-04-23T06:54:39;2.92;;;1.88;;
19149;SDS011;9707;49.158;8.632;2023-04-23T06:57:04;2.30;;;1.65;;
19149;SDS011;9707;49.158;8.632;2023-04-23T06:59:30;1.73;;;1.60;;
19149;SDS011;9707;49.158;8.632;2023-04-23T07:01:55;2.30;;;1.80;;
19149;SDS011;9707;49.158;8.632;2023-04-23T07:04:20;3.03;;;1.60;;
19149;SDS011;9707;49.158;8.632;2023-04-23T07:06:46;2.67;;;1.92;;
19149;SDS011;9707;49.158;8.632;2023-04-23T07:09:11;2.13;;;1.52;;
19149;SDS011;9707;49.158;8.632;2023-04-23T07:11:36;2.92;;;1.58;;
19149;SDS011;9707;49.158;8.632;2023-04-23T07:14:02;2.40;;;1.90;;
19149;SDS011;9707;49.158;8.632;2023-04-23T07:16:27;2.15;;;1.33;;
19149;SDS011;9707;49.158;8.632;2023-04-23T07:18:58;2.17;;;1.80;;
19149;SDS011;9707;49.158;8.632;2023-04-23T07:21:25;2.58;;;1.40;;
19149;SDS011;9707;49.158;8.632;2023-04-23T07:23:51;2.55;;;1.30;;
19149;SDS011;9707;49.158;8.632;2023-04-23T07:26:17;3.45;;;1.70;;
19149;SDS011;9707;49.158;8.632;2023-04-23T07:28:42;3.63;;;1.52;;
19149;SDS011;9707;49.158;8.632;2023-04-23T07:31:07;1.95;;;1.50;;
19149;SDS011;9707;49.158;8.632;2023-04-23T07:33:33;2.08;;;1.67;;
19149;SDS011;9707;49.158;8.632;2023-04-23T07:35:58;1.60;;;1.50;;
19149;SDS011;9707;49.158;8.632;2023-04-23T07:38:23;2.30;;;1.30;;
19149;SDS011;9707;49.158;8.632;2023-04-23T07:40:48;2.67;;;1.50;;
19149;SDS011;9707;49.158;8.632;2023-04-23T07:43:14;4.38;;;1.75;;
19149;SDS011;9707;49.158;8.632;2023-04-23T07:45:40;1.40;;;1.17;;
19149;SDS011;9707;49.158;8.632;2023-04-23T07:48:06;3.13;;;1.50;;
19149;SDS011;9707;49.158;8.632;2023-04-23T07:50:31;2.28;;;1.63;;
19149;SDS011;9707;49.158;8.632;2023-04-23T07:52:56;2.95;;;1.48;;
19149;SDS011;9707;49.158;8.632;2023-04-23T07:55:22;1.75;;;1.35;;
19149;SDS011;9707;49.158;8.632;2023-04-23T07:57:47;2.45;;;1.75;;
19149;SDS011;9707;49.158;8.632;2023-04-23T08:00:12;1.75;;;1.38;;
19149;SDS011;9707;49.158;8.632;2023-04-23T08:02:38;1.27;;;1.15;;
19149;SDS011;9707;49.158;8.632;2023-04-23T08:05:03;2.13;;;1.45;;
19149;SDS011;9707;49.158;8.632;2023-04-23T08:07:29;4.07;;;2.38;;
19149;SDS011;9707;49.158;8.632;2023-04-23T08:09:54;3.25;;;2.05;;
19149;SDS011;9707;49.158;8.632;2023-04-23T08:12:19;1.55;;;1.17;;
19149;SDS011;9707;49.158;8.632;2023-04-23T08:14:45;1.73;;;1.30;;
19149;SDS011;9707;49.158;8.632;2023-04-23T08:17:11;3.92;;;1.52;;
19149;SDS011;9707;49.158;8.632;2023-04-23T08:19:36;1.90;;;1.30;;
19149;SDS011;9707;49.158;8.632;2023-04-23T08:22:02;2.20;;;1.23;;
19149;SDS011;9707;49.158;8.632;2023-04-23T08:24:27;1.77;;;1.33;;
19149;SDS011;9707;49.158;8.632;2023-04-23T08:26:53;1.58;;;1.20;;
19149;SDS011;9707;49.158;8.632;2023-04-23T08:29:18;1.42;;;1.20;;
19149;SDS011;9707;49.158;8.632;2023-04-23T08:31:43;1.73;;;1.02;;
19149;SDS011;9707;49.158;8.632;2023-04-23T08:34:08;1.50;;;1.35;;
19149;SDS011;9707;49.158;8.632;2023-04-23T08:36:34;1.30;;;1.20;;
19149;SDS011;9707;49.158;8.632;2023-04-23T08:38:59;1.40;;;1.30;;
19149;SDS011;9707;49.158;8.632;2023-04-23T08:41:26;1.30;;;1.13;;
19149;SDS011;9707;49.158;8.632;2023-04-23T08:46:42;1.95;;;1.30;;
19149;SDS011;9707;49.158;8.632;2023-04-23T08:49:11;1.38;;;1.27;;
19149;SDS011;9707;49.158;8.632;2023-04-23T08:51:39;1.92;;;1.38;;
19149;SDS011;9707;49.158;8.632;2023-04-23T08:54:07;2.05;;;1.48;;
19149;SDS011;9707;49.158;8.632;2023-04-23T08:56:38;3.15;;;1.20;;
19149;SDS011;9707;49.158;8.632;2023-04-23T08:59:05;1.63;;;1.25;;
19149;SDS011;9707;49.158;8.632;2023-04-23T09:01:31;2.53;;;1.48;;
19149;SDS011;9707;49.158;8.632;2023-04-23T09:03:58;1.50;;;1.13;;
19149;SDS011;9707;49.158;8.632;2023-04-23T09:06:24;2.53;;;1.27;;
19149;SDS011;9707;49.158;8.632;2023-04-23T09:08:50;1.80;;;1.20;;
19149;SDS011;9707;49.158;8.632;2023-04-23T09:11:17;1.80;;;1.15;;
19149;SDS011;9707;49.158;8.632;2023-04-23T09:13:42;2.47;;;1.58;;
19149;SDS011;9707;49.158;8.632;2023-04-23T09:16:08;2.47;;;1.48;;
19149;SDS011;9707;49.158;8.632;2023-04-23T09:18:34;3.97;;;1.35;;
19149;SDS011;9707;49.158;8.632;2023-04-23T09:21:00;1.77;;;1.30;;
19149;SDS011;9707;49.158;8.632;2023-04-23T09:23:28;2.22;;;1.50;;
19149;SDS011;9707;49.158;8.632;2023-04-23T09:25:53;1.90;;;1.23;;
19149;SDS011;9707;49.158;8.632;2023-04-23T09:28:20;2.22;;;1.10;;
19149;SDS011;9707;49.158;8.632;2023-04-23T09:30:58;1.75;;;1.48;;
19149;SDS011;9707;49.158;8.632;2023-04-23T09:33:23;1.27;;;1.17;;
19149;SDS011;9707;49.158;8.632;2023-04-23T09:35:48;2.65;;;1.38;;
19149;SDS011;9707;49.158;8.632;2023-04-23T09:38:13;1.45;;;0.98;;
19149;SDS011;9707;49.158;8.632;2023-04-23T09:40:39;6.32;;;1.42;;
19149;SDS011;9707;49.158;8.632;2023-04-23T09:43:04;1.80;;;1.45;;
19149;SDS011;9707;49.158;8.632;2023-04-23T09:45:31;3.65;;;1.30;;
19149;SDS011;9707;49.158;8.632;2023-04-23T09:47:58;2.15;;;1.20;;
19149;SDS011;9707;49.158;8.632;2023-04-23T09:50:33;3.83;;;1.60;;
19149;SDS011;9707;49.158;8.632;2023-04-23T09:53:03;1.98;;;1.20;;
19149;SDS011;9707;49.158;8.632;2023-04-23T09:55:30;2.05;;;1.10;;
19149;SDS011;9707;49.158;8.632;2023-04-23T09:58:04;3.03;;;1.20;;
19149;SDS011;9707;49.158;8.632;2023-04-23T10:00:31;5.30;;;2.80;;
19149;SDS011;9707;49.158;8.632;2023-04-23T10:02:58;2.88;;;1.38;;
19149;SDS011;9707;49.158;8.632;2023-04-23T10:05:23;2.63;;;1.95;;
19149;SDS011;9707;49.158;8.632;2023-04-23T10:07:49;3.65;;;1.30;;
19149;SDS011;9707;49.158;8.632;2023-04-23T10:10:14;3.95;;;1.63;;
19149;SDS011;9707;49.158;8.632;2023-04-23T10:12:41;1.77;;;1.10;;
19149;SDS011;9707;49.158;8.632;2023-04-23T10:15:07;2.25;;;1.20;;
19149;SDS011;9707;49.158;8.632;2023-04-23T10:17:34;1.77;;;1.27;;
19149;SDS011;9707;49.158;8.632;2023-04-23T10:20:00;2.33;;;1.50;;
19149;SDS011;9707;49.158;8.632;2023-04-23T10:22:29;2.53;;;1.20;;
19149;SDS011;9707;49.158;8.632;2023-04-23T10:24:56;2.88;;;1.40;;
19149;SDS011;9707;49.158;8.632;2023-04-23T10:27:26;1.88;;;1.50;;
19149;SDS011;9707;49.158;8.632;2023-04-23T10:29:56;2.10;;;1.30;;
19149;SDS011;9707;49.158;8.632;2023-04-23T10:32:21;2.10;;;1.20;;
19149;SDS011;9707;49.158;8.632;2023-04-23T10:34:47;2.28;;;1.10;;
19149;SDS011;9707;49.158;8.632;2023-04-23T10:37:13;3.33;;;0.98;;
19149;SDS011;9707;49.158;8.632;2023-04-23T10:39:43;2.38;;;1.20;;
19149;SDS011;9707;49.158;8.632;2023-04-23T10:42:11;2.03;;;1.10;;
19149;SDS011;9707;49.158;8.632;2023-04-23T10:44:38;3.10;;;1.10;;
19149;SDS011;9707;49.158;8.632;2023-04-23T10:47:04;1.10;;;0.80;;
19149;SDS011;9707;49.158;8.632;2023-04-23T10:49:31;1.42;;;1.15;;
19149;SDS011;9707;49.158;8.632;2023-04-23T10:52:01;2.08;;;1.10;;
19149;SDS011;9707;49.158;8.632;2023-04-23T10:54:31;1.27;;;0.95;;
19149;SDS011;9707;49.158;8.632;2023-04-23T10:56:58;1.25;;;1.10;;
19149;SDS011;9707;49.158;8.632;2023-04-23T10:59:25;1.35;;;0.88;;
19149;SDS011;9707;49.158;8.632;2023-04-23T11:01:53;3.40;;;1.50;;
19149;SDS011;9707;49.158;8.632;2023-04-23T11:04:24;0.90;;;0.73;;
19149;SDS011;9707;49.158;8.632;2023-04-23T11:07:13;1.77;;;1.20;;
19149;SDS011;9707;49.158;8.632;2023-04-23T11:09:39;1.63;;;0.80;;
19149;SDS011;9707;49.158;8.632;2023-04-23T11:12:14;1.13;;;0.85;;
19149;SDS011;9707;49.158;8.632;2023-04-23T11:14:55;1.73;;;1.25;;
19149;SDS011;9707;49.158;8.632;2023-04-23T11:20:08;1.70;;;1.02;;
19149;SDS011;9707;49.158;8.632;2023-04-23T11:22:36;2.50;;;0.90;;
19149;SDS011;9707;49.158;8.632;2023-04-23T11:25:02;0.98;;;0.70;;
19149;SDS011;9707;49.158;8.632;2023-04-23T11:27:29;1.83;;;1.08;;
19149;SDS011;9707;49.158;8.632;2023-04-23T11:29:56;1.65;;;1.08;;
19149;SDS011;9707;49.158;8.632;2023-04-23T11:32:21;1.83;;;1.00;;
19149;SDS011;9707;49.158;8.632;2023-04-23T11:34:48;2.58;;;0.88;;
19149;SDS011;9707;49.158;8.632;2023-04-23T11:37:15;1.30;;;1.10;;
19149;SDS011;9707;49.158;8.632;2023-04-23T11:39:42;0.73;;;0.70;;
19149;SDS011;9707;49.158;8.632;2023-04-23T11:42:12;1.67;;;1.02;;
19149;SDS011;9707;49.158;8.632;2023-04-23T11:44:38;0.93;;;0.80;;
19149;SDS011;9707;49.158;8.632;2023-04-23T11:47:05;2.15;;;1.38;;
19149;SDS011;9707;49.158;8.632;2023-04-23T11:49:39;1.98;;;1.15;;
19149;SDS011;9707;49.158;8.632;2023-04-23T11:52:06;1.35;;;0.90;;
19149;SDS011;9707;49.158;8.632;2023-04-23T11:54:32;1.83;;;1.17;;
19149;SDS011;9707;49.158;8.632;2023-04-23T11:56:58;1.92;;;1.10;;
19149;SDS011;9707;49.158;8.632;2023-04-23T11:59:24;3.53;;;1.05;;
19149;SDS011;9707;49.158;8.632;2023-04-23T12:01:50;1.80;;;0.93;;
19149;SDS011;9707;49.158;8.632;2023-04-23T12:04:19;1.60;;;1.10;;
19149;SDS011;9707;49.158;8.632;2023-04-23T12:06:49;2.28;;;1.05;;
19149;SDS011;9707;49.158;8.632;2023-04-23T12:09:15;3.90;;;1.13;;
19149;SDS011;9707;49.158;8.632;2023-04-23T12:11:43;0.95;;;0.80;;
19149;SDS011;9707;49.158;8.632;2023-04-23T12:14:09;1.55;;;1.30;;
19149;SDS011;9707;49.158;8.632;2023-04-23T12:16:40;3.88;;;1.48;;
19149;SDS011;9707;49.158;8.632;2023-04-23T12:19:07;1.30;;;0.80;;
19149;SDS011;9707;49.158;8.632;2023-04-23T12:24:43;1.58;;;1.30;;
19149;SDS011;9707;49.158;8.632;2023-04-23T12:27:13;1.35;;;0.95;;
19149;SDS011;9707;49.158;8.632;2023-04-23T12:29:39;1.73;;;1.20;;
19149;SDS011;9707;49.158;8.632;2023-04-23T12:32:05;1.30;;;1.10;;
19149;SDS011;9707;49.158;8.632;2023-04-23T12:34:35;1.50;;;1.10;;
19149;SDS011;9707;49.158;8.632;2023-04-23T12:37:00;1.13;;;1.02;;
19149;SDS011;9707;49.158;8.632;2023-04-23T12:39:31;2.47;;;1.15;;
19149;SDS011;9707;49.158;8.632;2023-04-23T12:42:04;1.73;;;1.17;;
19149;SDS011;9707;49.158;8.632;2023-04-23T12:44:32;1.20;;;1.10;;
19149;SDS011;9707;49.158;8.632;2023-04-23T12:47:00;1.92;;;1.00;;
19149;SDS011;9707;49.158;8.632;2023-04-23T12:49:27;1.33;;;1.13;;
19149;SDS011;9707;49.158;8.632;2023-04-23T12:51:56;1.25;;;1.00;;
19149;SDS011;9707;49.158;8.632;2023-04-23T12:54:25;1.70;;;1.00;;
19149;SDS011;9707;49.158;8.632;2023-04-23T12:56:55;2.22;;;1.35;;
19149;SDS011;9707;49.158;8.632;2023-04-23T12:59:21;1.85;;;0.80;;
19149;SDS011;9707;49.158;8.632;2023-04-23T13:01:46;1.10;;;1.00;;
19149;SDS011;9707;49.158;8.632;2023-04-23T13:04:12;2.30;;;1.23;;
19149;SDS011;9707;49.158;8.632;2023-04-23T13:06:38;1.38;;;1.15;;
19149;SDS011;9707;49.158;8.632;2023-04-23T13:09:04;1.40;;;1.10;;
19149;SDS011;9707;49.158;8.632;2023-04-23T13:11:32;1.00;;;0.90;;
19149;SDS011;9707;49.158;8.632;2023-04-23T13:13:57;1.00;;;0.90;;
19149;SDS011;9707;49.158;8.632;2023-04-23T13:16:23;1.10;;;1.00;;
19149;SDS011;9707;49.158;8.632;2023-04-23T13:18:48;1.98;;;1.10;;
19149;SDS011;9707;49.158;8.632;2023-04-23T13:21:15;1.95;;;0.80;;
19149;SDS011;9707;49.158;8.632;2023-04-23T13:23:41;1.23;;;0.80;;
19149;SDS011;9707;49.158;8.632;2023-04-23T13:26:06;2.53;;;0.95;;
19149;SDS011;9707;49.158;8.632;2023-04-23T13:28:32;1.38;;;0.98;;
19149;SDS011;9707;49.158;8.632;2023-04-23T13:30:57;1.33;;;1.00;;
19149;SDS011;9707;49.158;8.632;2023-04-23T13:33:23;2.55;;;1.08;;
19149;SDS011;9707;49.158;8.632;2023-04-23T13:35:48;1.15;;;1.00;;
19149;SDS011;9707;49.158;8.632;2023-04-23T13:38:13;3.03;;;1.10;;
19149;SDS011;9707;49.158;8.632;2023-04-23T13:40:38;1.65;;;1.00;;
19149;SDS011;9707;49.158;8.632;2023-04-23T13:43:04;2.00;;;0.90;;
19149;SDS011;9707;49.158;8.632;2023-04-23T13:45:30;0.90;;;0.80;;
19149;SDS011;9707;49.158;8.632;2023-04-23T13:47:55;1.05;;;0.70;;
19149;SDS011;9707;49.158;8.632;2023-04-23T13:50:20;3.22;;;0.77;;
19149;SDS011;9707;49.158;8.632;2023-04-23T13:52:46;2.85;;;0.90;;
19149;SDS011;9707;49.158;8.632;2023-04-23T13:55:11;0.80;;;0.70;;
19149;SDS011;9707;49.158;8.632;2023-04-23T13:57:37;2.45;;;0.80;;
19149;SDS011;9707;49.158;8.632;2023-04-23T14:00:03;1.27;;;0.80;;
19149;SDS011;9707;49.158;8.632;2023-04-23T14:02:29;1.65;;;0.90;;
19149;SDS011;9707;49.158;8.632;2023-04-23T14:04:54;1.30;;;0.75;;
19149;SDS011;9707;49.158;8.632;2023-04-23T14:07:20;0.70;;;0.70;;
19149;SDS011;9707;49.158;8.632;2023-04-23T14:09:45;1.30;;;1.10;;
19149;SDS011;9707;49.158;8.632;2023-04-23T14:12:11;2.15;;;0.90;;
19149;SDS011;9707;49.158;8.632;2023-04-23T14:14:36;2.10;;;0.73;;
19149;SDS011;9707;49.158;8.632;2023-04-23T14:17:02;1.10;;;0.90;;
19149;SDS011;9707;49.158;8.632;2023-04-23T14:19:27;2.60;;;0.80;;
19149;SDS011;9707;49.158;8.632;2023-04-23T14:21:54;0.90;;;0.70;;
19149;SDS011;9707;49.158;8.632;2023-04-23T14:24:23;1.00;;;0.77;;
19149;SDS011;9707;49.158;8.632;2023-04-23T14:26:55;2.00;;;0.90;;
19149;SDS011;9707;49.158;8.632;2023-04-23T14:32:10;1.65;;;1.08;;
19149;SDS011;9707;49.158;8.632;2023-04-23T14:34:36;1.35;;;0.70;;
19149;SDS011;9707;49.158;8.632;2023-04-23T14:37:01;1.98;;;0.90;;
19149;SDS011;9707;49.158;8.632;2023-04-23T14:39:27;0.90;;;0.70;;
19149;SDS011;9707;49.158;8.632;2023-04-23T14:41:53;1.60;;;1.10;;
19149;SDS011;9707;49.158;8.632;2023-04-23T14:44:19;1.27;;;0.70;;
19149;SDS011;9707;49.158;8.632;2023-04-23T14:46:47;2.92;;;1.00;;
19149;SDS011;9707;49.158;8.632;2023-04-23T14:49:14;1.30;;;0.73;;
19149;SDS011;9707;49.158;8.632;2023-04-23T14:51:40;1.45;;;0.77;;
19149;SDS011;9707;49.158;8.632;2023-04-23T14:54:06;1.33;;;0.70;;
19149;SDS011;9707;49.158;8.632;2023-04-23T14:56:31;1.50;;;0.80;;
19149;SDS011;9707;49.158;8.632;2023-04-23T14:58:56;2.60;;;0.85;;
19149;SDS011;9707;49.158;8.632;2023-04-23T15:01:22;1.70;;;0.80;;
19149;SDS011;9707;49.158;8.632;2023-04-23T15:03:48;1.75;;;1.05;;
19149;SDS011;9707;49.158;8.632;2023-04-23T15:06:13;1.15;;;0.60;;